sensor_id;sensor_type;location;lat;lon;timestamp;P1;durP1;ratioP1;P2;durP2;ratioP2
84982;SDS011;75295;45.426;9.696;2024-01-07T00:02:06;41.95;;;29.80;;
84982;SDS011;75295;45.426;9.696;2024-01-07T00:04:32;42.93;;;30.90;;
84982;SDS011;75295;45.426;9.696;2024-01-07T00:07:00;43.30;;;29.77;;
84982;SDS011;75295;45.426;9.696;2024-01-07T00:09:27;47.05;;;30.55;;
84982;SDS011;75295;45.426;9.696;2024-01-07T00:11:53;41.63;;;29.95;;
84982;SDS011;75295;45.426;9.696;2024-01-07T00:14:20;46.65;;;30.35;;
84982;SDS011;75295;45.426;9.696;2024-01-07T00:16:47;42.47;;;28.33;;
84982;SDS011;75295;45.426;9.696;2024-01-07T00:19:14;42.35;;;28.40;;
84982;SDS011;75295;45.426;9.696;2024-01-07T00:21:40;44.20;;;28.83;;
84982;SDS011;75295;45.426;9.696;2024-01-07T00:24:07;40.95;;;30.88;;
84982;SDS011;75295;45.426;9.696;2024-01-07T00:26:34;41.20;;;28.23;;
84982;SDS011;75295;45.426;9.696;2024-01-07T00:29:01;42.13;;;30.77;;
84982;SDS011;75295;45.426;9.696;2024-01-07T00:31:28;47.00;;;32.25;;
84982;SDS011;75295;45.426;9.696;2024-01-07T00:33:55;37.95;;;28.95;;
84982;SDS011;75295;45.426;9.696;2024-01-07T00:36:22;48.78;;;31.45;;
84982;SDS011;75295;45.426;9.696;2024-01-07T00:38:50;38.33;;;28.52;;
84982;SDS011;75295;45.426;9.696;2024-01-07T00:41:16;44.00;;;30.55;;
84982;SDS011;75295;45.426;9.696;2024-01-07T00:43:43;48.83;;;32.97;;
84982;SDS011;75295;45.426;9.696;2024-01-07T00:46:10;46.58;;;31.38;;
84982;SDS011;75295;45.426;9.696;2024-01-07T00:48:37;46.70;;;29.38;;
84982;SDS011;75295;45.426;9.696;2024-01-07T00:51:04;43.90;;;31.83;;
84982;SDS011;75295;45.426;9.696;2024-01-07T00:53:30;38.35;;;27.50;;
84982;SDS011;75295;45.426;9.696;2024-01-07T00:55:57;48.58;;;30.77;;
84982;SDS011;75295;45.426;9.696;2024-01-07T00:58:24;43.75;;;31.25;;
84982;SDS011;75295;45.426;9.696;2024-01-07T01:00:51;45.00;;;31.23;;
84982;SDS011;75295;45.426;9.696;2024-01-07T01:03:19;42.10;;;30.75;;
84982;SDS011;75295;45.426;9.696;2024-01-07T01:05:46;44.50;;;31.80;;
84982;SDS011;75295;45.426;9.696;2024-01-07T01:08:13;46.45;;;30.60;;
84982;SDS011;75295;45.426;9.696;2024-01-07T01:10:40;44.03;;;31.67;;
84982;SDS011;75295;45.426;9.696;2024-01-07T01:13:07;36.97;;;27.48;;
84982;SDS011;75295;45.426;9.696;2024-01-07T01:15:34;43.40;;;31.05;;
84982;SDS011;75295;45.426;9.696;2024-01-07T01:18:02;40.05;;;28.83;;
84982;SDS011;75295;45.426;9.696;2024-01-07T01:20:30;40.20;;;31.02;;
84982;SDS011;75295;45.426;9.696;2024-01-07T01:22:57;47.13;;;31.85;;
84982;SDS011;75295;45.426;9.696;2024-01-07T01:25:23;35.72;;;28.42;;
84982;SDS011;75295;45.426;9.696;2024-01-07T01:27:52;38.70;;;29.55;;
84982;SDS011;75295;45.426;9.696;2024-01-07T01:30:18;40.35;;;28.70;;
84982;SDS011;75295;45.426;9.696;2024-01-07T01:32:45;37.97;;;27.90;;
84982;SDS011;75295;45.426;9.696;2024-01-07T01:35:12;37.05;;;28.25;;
84982;SDS011;75295;45.426;9.696;2024-01-07T01:37:41;37.97;;;29.05;;
84982;SDS011;75295;45.426;9.696;2024-01-07T01:40:08;38.03;;;28.73;;
84982;SDS011;75295;45.426;9.696;2024-01-07T01:42:35;42.33;;;30.52;;
84982;SDS011;75295;45.426;9.696;2024-01-07T01:45:02;42.60;;;30.83;;
84982;SDS011;75295;45.426;9.696;2024-01-07T01:47:30;38.40;;;28.85;;
84982;SDS011;75295;45.426;9.696;2024-01-07T01:49:58;40.33;;;27.33;;
84982;SDS011;75295;45.426;9.696;2024-01-07T01:52:25;35.90;;;27.10;;
84982;SDS011;75295;45.426;9.696;2024-01-07T01:54:53;35.60;;;26.48;;
84982;SDS011;75295;45.426;9.696;2024-01-07T01:57:21;37.17;;;28.63;;
84982;SDS011;75295;45.426;9.696;2024-01-07T01:59:51;50.13;;;32.72;;
84982;SDS011;75295;45.426;9.696;2024-01-07T02:02:17;42.08;;;30.33;;
84982;SDS011;75295;45.426;9.696;2024-01-07T02:04:45;40.53;;;29.40;;
84982;SDS011;75295;45.426;9.696;2024-01-07T02:07:12;43.30;;;31.00;;
84982;SDS011;75295;45.426;9.696;2024-01-07T02:09:40;39.17;;;28.90;;
84982;SDS011;75295;45.426;9.696;2024-01-07T02:12:07;42.67;;;30.77;;
84982;SDS011;75295;45.426;9.696;2024-01-07T02:14:38;44.47;;;32.40;;
84982;SDS011;75295;45.426;9.696;2024-01-07T02:17:05;47.67;;;32.60;;
84982;SDS011;75295;45.426;9.696;2024-01-07T02:19:32;42.85;;;31.80;;
84982;SDS011;75295;45.426;9.696;2024-01-07T02:21:59;39.15;;;26.95;;
84982;SDS011;75295;45.426;9.696;2024-01-07T02:24:26;40.38;;;29.23;;
84982;SDS011;75295;45.426;9.696;2024-01-07T02:26:52;40.45;;;29.55;;
84982;SDS011;75295;45.426;9.696;2024-01-07T02:29:19;40.05;;;30.13;;
84982;SDS011;75295;45.426;9.696;2024-01-07T02:31:46;42.70;;;29.90;;
84982;SDS011;75295;45.426;9.696;2024-01-07T02:34:13;44.28;;;32.15;;
84982;SDS011;75295;45.426;9.696;2024-01-07T02:36:40;49.97;;;32.50;;
84982;SDS011;75295;45.426;9.696;2024-01-07T02:39:07;48.20;;;32.92;;
84982;SDS011;75295;45.426;9.696;2024-01-07T02:41:34;43.28;;;31.98;;
84982;SDS011;75295;45.426;9.696;2024-01-07T02:44:01;47.72;;;34.22;;
84982;SDS011;75295;45.426;9.696;2024-01-07T02:46:27;50.22;;;35.65;;
84982;SDS011;75295;45.426;9.696;2024-01-07T02:48:54;53.63;;;38.60;;
84982;SDS011;75295;45.426;9.696;2024-01-07T02:51:21;52.97;;;37.25;;
84982;SDS011;75295;45.426;9.696;2024-01-07T02:53:47;49.40;;;34.65;;
84982;SDS011;75295;45.426;9.696;2024-01-07T02:56:14;54.92;;;36.78;;
84982;SDS011;75295;45.426;9.696;2024-01-07T02:58:41;56.83;;;40.40;;
84982;SDS011;75295;45.426;9.696;2024-01-07T03:01:08;51.50;;;37.55;;
84982;SDS011;75295;45.426;9.696;2024-01-07T03:03:36;58.33;;;38.53;;
84982;SDS011;75295;45.426;9.696;2024-01-07T03:06:03;53.75;;;36.45;;
84982;SDS011;75295;45.426;9.696;2024-01-07T03:08:30;53.80;;;36.08;;
84982;SDS011;75295;45.426;9.696;2024-01-07T03:10:57;47.35;;;32.33;;
84982;SDS011;75295;45.426;9.696;2024-01-07T03:13:24;57.97;;;38.25;;
84982;SDS011;75295;45.426;9.696;2024-01-07T03:15:50;51.65;;;37.40;;
84982;SDS011;75295;45.426;9.696;2024-01-07T03:18:17;44.28;;;33.00;;
84982;SDS011;75295;45.426;9.696;2024-01-07T03:20:44;41.33;;;30.98;;
84982;SDS011;75295;45.426;9.696;2024-01-07T03:23:10;50.95;;;34.45;;
84982;SDS011;75295;45.426;9.696;2024-01-07T03:25:37;50.17;;;35.60;;
84982;SDS011;75295;45.426;9.696;2024-01-07T03:28:04;60.70;;;43.55;;
84982;SDS011;75295;45.426;9.696;2024-01-07T03:30:31;56.15;;;38.30;;
84982;SDS011;75295;45.426;9.696;2024-01-07T03:32:58;50.25;;;35.22;;
84982;SDS011;75295;45.426;9.696;2024-01-07T03:35:25;52.42;;;35.55;;
84982;SDS011;75295;45.426;9.696;2024-01-07T03:37:51;50.17;;;34.60;;
84982;SDS011;75295;45.426;9.696;2024-01-07T03:40:18;55.17;;;39.65;;
84982;SDS011;75295;45.426;9.696;2024-01-07T03:42:45;52.67;;;38.25;;
84982;SDS011;75295;45.426;9.696;2024-01-07T03:45:11;54.78;;;37.88;;
84982;SDS011;75295;45.426;9.696;2024-01-07T03:47:38;59.30;;;40.28;;
84982;SDS011;75295;45.426;9.696;2024-01-07T03:50:05;55.67;;;39.45;;
84982;SDS011;75295;45.426;9.696;2024-01-07T03:52:32;53.35;;;37.25;;
84982;SDS011;75295;45.426;9.696;2024-01-07T03:55:00;51.53;;;36.72;;
84982;SDS011;75295;45.426;9.696;2024-01-07T03:57:27;45.50;;;32.60;;
84982;SDS011;75295;45.426;9.696;2024-01-07T03:59:53;42.03;;;30.33;;
84982;SDS011;75295;45.426;9.696;2024-01-07T04:02:21;49.00;;;34.55;;
84982;SDS011;75295;45.426;9.696;2024-01-07T04:04:47;50.72;;;35.08;;
84982;SDS011;75295;45.426;9.696;2024-01-07T04:07:14;54.22;;;38.38;;
84982;SDS011;75295;45.426;9.696;2024-01-07T04:09:42;50.70;;;34.63;;
84982;SDS011;75295;45.426;9.696;2024-01-07T04:12:10;44.15;;;32.75;;
84982;SDS011;75295;45.426;9.696;2024-01-07T04:14:37;56.88;;;37.25;;
84982;SDS011;75295;45.426;9.696;2024-01-07T04:17:03;62.30;;;40.25;;
84982;SDS011;75295;45.426;9.696;2024-01-07T04:19:31;66.70;;;42.40;;
84982;SDS011;75295;45.426;9.696;2024-01-07T04:21:57;63.58;;;41.58;;
84982;SDS011;75295;45.426;9.696;2024-01-07T04:24:24;57.00;;;37.28;;
84982;SDS011;75295;45.426;9.696;2024-01-07T04:26:51;46.60;;;33.28;;
84982;SDS011;75295;45.426;9.696;2024-01-07T04:29:17;60.15;;;37.47;;
84982;SDS011;75295;45.426;9.696;2024-01-07T04:31:45;62.45;;;40.35;;
84982;SDS011;75295;45.426;9.696;2024-01-07T04:34:12;55.70;;;38.60;;
84982;SDS011;75295;45.426;9.696;2024-01-07T04:36:38;62.63;;;40.88;;
84982;SDS011;75295;45.426;9.696;2024-01-07T04:39:05;54.28;;;36.78;;
84982;SDS011;75295;45.426;9.696;2024-01-07T04:41:32;52.55;;;35.47;;
84982;SDS011;75295;45.426;9.696;2024-01-07T04:43:59;55.63;;;36.08;;
84982;SDS011;75295;45.426;9.696;2024-01-07T04:46:26;59.95;;;39.95;;
84982;SDS011;75295;45.426;9.696;2024-01-07T04:48:52;62.42;;;39.90;;
84982;SDS011;75295;45.426;9.696;2024-01-07T04:51:19;59.92;;;40.72;;
84982;SDS011;75295;45.426;9.696;2024-01-07T04:53:46;60.38;;;39.28;;
84982;SDS011;75295;45.426;9.696;2024-01-07T04:56:14;56.53;;;37.80;;
84982;SDS011;75295;45.426;9.696;2024-01-07T04:58:40;56.80;;;36.42;;
84982;SDS011;75295;45.426;9.696;2024-01-07T05:01:07;60.58;;;38.90;;
84982;SDS011;75295;45.426;9.696;2024-01-07T05:03:34;52.10;;;35.85;;
84982;SDS011;75295;45.426;9.696;2024-01-07T05:06:01;54.03;;;39.00;;
84982;SDS011;75295;45.426;9.696;2024-01-07T05:08:28;52.80;;;38.08;;
84982;SDS011;75295;45.426;9.696;2024-01-07T05:10:55;60.28;;;42.17;;
84982;SDS011;75295;45.426;9.696;2024-01-07T05:13:22;61.00;;;39.30;;
84982;SDS011;75295;45.426;9.696;2024-01-07T05:15:49;59.28;;;41.33;;
84982;SDS011;75295;45.426;9.696;2024-01-07T05:18:20;59.90;;;38.53;;
84982;SDS011;75295;45.426;9.696;2024-01-07T05:20:48;61.40;;;41.50;;
84982;SDS011;75295;45.426;9.696;2024-01-07T05:23:16;55.80;;;38.25;;
84982;SDS011;75295;45.426;9.696;2024-01-07T05:25:43;63.22;;;43.55;;
84982;SDS011;75295;45.426;9.696;2024-01-07T05:28:11;59.33;;;40.30;;
84982;SDS011;75295;45.426;9.696;2024-01-07T05:30:38;56.15;;;38.55;;
84982;SDS011;75295;45.426;9.696;2024-01-07T05:33:06;54.90;;;39.50;;
84982;SDS011;75295;45.426;9.696;2024-01-07T05:35:32;55.75;;;38.53;;
84982;SDS011;75295;45.426;9.696;2024-01-07T05:38:00;62.45;;;40.35;;
84982;SDS011;75295;45.426;9.696;2024-01-07T05:40:27;61.53;;;42.88;;
84982;SDS011;75295;45.426;9.696;2024-01-07T05:42:54;64.80;;;41.75;;
84982;SDS011;75295;45.426;9.696;2024-01-07T05:45:21;48.88;;;35.22;;
84982;SDS011;75295;45.426;9.696;2024-01-07T05:47:47;49.45;;;35.20;;
84982;SDS011;75295;45.426;9.696;2024-01-07T05:50:14;48.65;;;34.17;;
84982;SDS011;75295;45.426;9.696;2024-01-07T05:52:42;51.40;;;36.70;;
84982;SDS011;75295;45.426;9.696;2024-01-07T05:55:10;61.40;;;38.47;;
84982;SDS011;75295;45.426;9.696;2024-01-07T05:57:37;47.85;;;32.30;;
84982;SDS011;75295;45.426;9.696;2024-01-07T06:00:04;49.38;;;35.10;;
84982;SDS011;75295;45.426;9.696;2024-01-07T06:02:40;50.70;;;35.65;;
84982;SDS011;75295;45.426;9.696;2024-01-07T06:05:06;55.50;;;36.33;;
84982;SDS011;75295;45.426;9.696;2024-01-07T06:07:33;55.53;;;35.58;;
84982;SDS011;75295;45.426;9.696;2024-01-07T06:10:00;48.40;;;32.80;;
84982;SDS011;75295;45.426;9.696;2024-01-07T06:12:27;53.45;;;33.55;;
84982;SDS011;75295;45.426;9.696;2024-01-07T06:14:54;56.00;;;35.35;;
84982;SDS011;75295;45.426;9.696;2024-01-07T06:17:21;45.17;;;32.22;;
84982;SDS011;75295;45.426;9.696;2024-01-07T06:19:47;46.28;;;32.90;;
84982;SDS011;75295;45.426;9.696;2024-01-07T06:22:14;51.97;;;35.63;;
84982;SDS011;75295;45.426;9.696;2024-01-07T06:24:41;45.75;;;32.17;;
84982;SDS011;75295;45.426;9.696;2024-01-07T06:27:08;49.00;;;34.50;;
84982;SDS011;75295;45.426;9.696;2024-01-07T06:29:34;50.10;;;34.67;;
84982;SDS011;75295;45.426;9.696;2024-01-07T06:32:01;43.70;;;33.55;;
84982;SDS011;75295;45.426;9.696;2024-01-07T06:34:29;48.60;;;33.63;;
84982;SDS011;75295;45.426;9.696;2024-01-07T06:36:56;44.83;;;33.30;;
84982;SDS011;75295;45.426;9.696;2024-01-07T06:39:23;53.58;;;35.53;;
84982;SDS011;75295;45.426;9.696;2024-01-07T06:41:53;45.00;;;33.03;;
84982;SDS011;75295;45.426;9.696;2024-01-07T06:44:20;46.13;;;31.85;;
84982;SDS011;75295;45.426;9.696;2024-01-07T06:46:46;42.70;;;31.42;;
84982;SDS011;75295;45.426;9.696;2024-01-07T06:49:13;42.80;;;31.83;;
84982;SDS011;75295;45.426;9.696;2024-01-07T06:51:40;45.15;;;31.08;;
84982;SDS011;75295;45.426;9.696;2024-01-07T06:54:07;42.38;;;31.35;;
84982;SDS011;75295;45.426;9.696;2024-01-07T06:56:34;45.25;;;33.33;;
84982;SDS011;75295;45.426;9.696;2024-01-07T06:59:00;43.30;;;30.88;;
84982;SDS011;75295;45.426;9.696;2024-01-07T07:01:27;46.63;;;31.88;;
84982;SDS011;75295;45.426;9.696;2024-01-07T07:03:54;42.78;;;31.77;;
84982;SDS011;75295;45.426;9.696;2024-01-07T07:06:21;41.97;;;30.92;;
84982;SDS011;75295;45.426;9.696;2024-01-07T07:08:48;43.50;;;30.27;;
84982;SDS011;75295;45.426;9.696;2024-01-07T07:11:16;49.70;;;34.67;;
84982;SDS011;75295;45.426;9.696;2024-01-07T07:13:42;51.78;;;36.25;;
84982;SDS011;75295;45.426;9.696;2024-01-07T07:16:09;60.42;;;38.85;;
84982;SDS011;75295;45.426;9.696;2024-01-07T07:18:36;51.30;;;34.83;;
84982;SDS011;75295;45.426;9.696;2024-01-07T07:21:03;50.17;;;35.15;;
84982;SDS011;75295;45.426;9.696;2024-01-07T07:23:30;47.88;;;31.55;;
84982;SDS011;75295;45.426;9.696;2024-01-07T07:25:56;44.80;;;30.85;;
84982;SDS011;75295;45.426;9.696;2024-01-07T07:28:23;44.75;;;31.50;;
84982;SDS011;75295;45.426;9.696;2024-01-07T07:30:50;46.30;;;31.50;;
84982;SDS011;75295;45.426;9.696;2024-01-07T07:33:18;45.10;;;31.25;;
84982;SDS011;75295;45.426;9.696;2024-01-07T07:35:44;52.83;;;35.17;;
84982;SDS011;75295;45.426;9.696;2024-01-07T07:38:12;64.05;;;38.97;;
84982;SDS011;75295;45.426;9.696;2024-01-07T07:40:38;55.20;;;35.55;;
84982;SDS011;75295;45.426;9.696;2024-01-07T07:43:05;55.30;;;35.03;;
84982;SDS011;75295;45.426;9.696;2024-01-07T07:45:33;54.03;;;36.42;;
84982;SDS011;75295;45.426;9.696;2024-01-07T07:48:00;49.83;;;35.33;;
84982;SDS011;75295;45.426;9.696;2024-01-07T07:50:27;57.45;;;38.58;;
84982;SDS011;75295;45.426;9.696;2024-01-07T07:52:53;47.08;;;32.90;;
84982;SDS011;75295;45.426;9.696;2024-01-07T07:55:20;49.03;;;33.28;;
84982;SDS011;75295;45.426;9.696;2024-01-07T07:57:47;47.30;;;31.70;;
84982;SDS011;75295;45.426;9.696;2024-01-07T08:00:14;46.15;;;31.67;;
84982;SDS011;75295;45.426;9.696;2024-01-07T08:02:42;52.83;;;33.70;;
84982;SDS011;75295;45.426;9.696;2024-01-07T08:05:09;50.97;;;33.50;;
84982;SDS011;75295;45.426;9.696;2024-01-07T08:07:36;52.72;;;33.42;;
84982;SDS011;75295;45.426;9.696;2024-01-07T08:10:04;46.65;;;32.50;;
84982;SDS011;75295;45.426;9.696;2024-01-07T08:12:32;53.22;;;34.83;;
84982;SDS011;75295;45.426;9.696;2024-01-07T08:14:59;58.97;;;37.33;;
84982;SDS011;75295;45.426;9.696;2024-01-07T08:17:25;49.08;;;33.53;;
84982;SDS011;75295;45.426;9.696;2024-01-07T08:19:53;49.35;;;31.67;;
84982;SDS011;75295;45.426;9.696;2024-01-07T08:22:19;47.83;;;32.65;;
84982;SDS011;75295;45.426;9.696;2024-01-07T08:24:46;49.55;;;32.90;;
84982;SDS011;75295;45.426;9.696;2024-01-07T08:27:13;46.17;;;32.47;;
84982;SDS011;75295;45.426;9.696;2024-01-07T08:29:42;47.35;;;32.25;;
84982;SDS011;75295;45.426;9.696;2024-01-07T08:32:10;43.10;;;30.08;;
84982;SDS011;75295;45.426;9.696;2024-01-07T08:34:38;44.75;;;31.35;;
84982;SDS011;75295;45.426;9.696;2024-01-07T08:37:07;45.63;;;31.33;;
84982;SDS011;75295;45.426;9.696;2024-01-07T08:39:35;38.17;;;27.08;;
84982;SDS011;75295;45.426;9.696;2024-01-07T08:42:02;37.83;;;27.08;;
84982;SDS011;75295;45.426;9.696;2024-01-07T08:44:30;38.03;;;25.88;;
84982;SDS011;75295;45.426;9.696;2024-01-07T08:46:57;34.92;;;26.52;;
84982;SDS011;75295;45.426;9.696;2024-01-07T08:49:27;36.80;;;26.02;;
84982;SDS011;75295;45.426;9.696;2024-01-07T08:51:55;37.92;;;26.73;;
84982;SDS011;75295;45.426;9.696;2024-01-07T08:54:22;39.50;;;28.95;;
84982;SDS011;75295;45.426;9.696;2024-01-07T08:56:49;39.72;;;29.13;;
84982;SDS011;75295;45.426;9.696;2024-01-07T08:59:16;39.03;;;28.10;;
84982;SDS011;75295;45.426;9.696;2024-01-07T09:01:43;37.33;;;25.98;;
84982;SDS011;75295;45.426;9.696;2024-01-07T09:04:09;40.33;;;28.38;;
84982;SDS011;75295;45.426;9.696;2024-01-07T09:06:36;40.38;;;29.67;;
84982;SDS011;75295;45.426;9.696;2024-01-07T09:09:03;41.10;;;30.20;;
84982;SDS011;75295;45.426;9.696;2024-01-07T09:11:34;38.83;;;28.38;;
84982;SDS011;75295;45.426;9.696;2024-01-07T09:14:01;38.78;;;28.90;;
84982;SDS011;75295;45.426;9.696;2024-01-07T09:16:29;43.20;;;31.10;;
84982;SDS011;75295;45.426;9.696;2024-01-07T09:18:56;45.75;;;29.13;;
84982;SDS011;75295;45.426;9.696;2024-01-07T09:21:23;42.53;;;28.88;;
84982;SDS011;75295;45.426;9.696;2024-01-07T09:23:50;43.97;;;31.13;;
84982;SDS011;75295;45.426;9.696;2024-01-07T09:26:16;42.67;;;30.58;;
84982;SDS011;75295;45.426;9.696;2024-01-07T09:28:43;41.08;;;29.02;;
84982;SDS011;75295;45.426;9.696;2024-01-07T09:31:11;41.40;;;29.42;;
84982;SDS011;75295;45.426;9.696;2024-01-07T09:33:37;38.83;;;26.77;;
84982;SDS011;75295;45.426;9.696;2024-01-07T09:36:04;33.25;;;24.70;;
84982;SDS011;75295;45.426;9.696;2024-01-07T09:38:33;40.72;;;28.23;;
84982;SDS011;75295;45.426;9.696;2024-01-07T09:41:00;43.40;;;30.17;;
84982;SDS011;75295;45.426;9.696;2024-01-07T09:43:27;36.33;;;26.98;;
84982;SDS011;75295;45.426;9.696;2024-01-07T09:45:54;33.60;;;23.92;;
84982;SDS011;75295;45.426;9.696;2024-01-07T09:48:25;33.65;;;24.55;;
84982;SDS011;75295;45.426;9.696;2024-01-07T09:50:52;36.17;;;25.67;;
84982;SDS011;75295;45.426;9.696;2024-01-07T09:53:19;37.88;;;26.83;;
84982;SDS011;75295;45.426;9.696;2024-01-07T09:56:11;38.00;;;25.88;;
84982;SDS011;75295;45.426;9.696;2024-01-07T09:58:46;37.05;;;27.67;;
84982;SDS011;75295;45.426;9.696;2024-01-07T10:01:19;36.75;;;26.02;;
84982;SDS011;75295;45.426;9.696;2024-01-07T10:03:46;36.83;;;26.27;;
84982;SDS011;75295;45.426;9.696;2024-01-07T10:06:13;34.05;;;25.15;;
84982;SDS011;75295;45.426;9.696;2024-01-07T10:08:46;34.20;;;24.23;;
84982;SDS011;75295;45.426;9.696;2024-01-07T10:11:15;33.03;;;24.08;;
84982;SDS011;75295;45.426;9.696;2024-01-07T10:13:46;34.03;;;24.08;;
84982;SDS011;75295;45.426;9.696;2024-01-07T10:16:13;32.72;;;23.50;;
84982;SDS011;75295;45.426;9.696;2024-01-07T10:18:40;33.42;;;25.15;;
84982;SDS011;75295;45.426;9.696;2024-01-07T10:21:07;33.85;;;25.38;;
84982;SDS011;75295;45.426;9.696;2024-01-07T10:23:34;29.90;;;21.30;;
84982;SDS011;75295;45.426;9.696;2024-01-07T10:26:01;31.95;;;22.92;;
84982;SDS011;75295;45.426;9.696;2024-01-07T10:28:28;26.88;;;20.65;;
84982;SDS011;75295;45.426;9.696;2024-01-07T10:30:55;26.77;;;20.35;;
84982;SDS011;75295;45.426;9.696;2024-01-07T10:33:22;27.67;;;19.83;;
84982;SDS011;75295;45.426;9.696;2024-01-07T10:35:55;27.58;;;21.48;;
84982;SDS011;75295;45.426;9.696;2024-01-07T10:38:28;30.98;;;21.40;;
84982;SDS011;75295;45.426;9.696;2024-01-07T10:40:55;30.52;;;20.85;;
84982;SDS011;75295;45.426;9.696;2024-01-07T10:43:26;26.45;;;18.75;;
84982;SDS011;75295;45.426;9.696;2024-01-07T10:45:56;27.42;;;19.33;;
84982;SDS011;75295;45.426;9.696;2024-01-07T10:48:30;26.35;;;20.02;;
84982;SDS011;75295;45.426;9.696;2024-01-07T10:51:00;25.83;;;19.70;;
84982;SDS011;75295;45.426;9.696;2024-01-07T10:53:27;24.35;;;18.52;;
84982;SDS011;75295;45.426;9.696;2024-01-07T10:56:03;28.70;;;21.52;;
84982;SDS011;75295;45.426;9.696;2024-01-07T10:58:35;23.60;;;17.75;;
84982;SDS011;75295;45.426;9.696;2024-01-07T11:01:03;25.98;;;19.00;;
84982;SDS011;75295;45.426;9.696;2024-01-07T11:06:29;26.10;;;19.48;;
84982;SDS011;75295;45.426;9.696;2024-01-07T11:12:05;24.98;;;19.52;;
84982;SDS011;75295;45.426;9.696;2024-01-07T11:17:06;26.25;;;18.88;;
84982;SDS011;75295;45.426;9.696;2024-01-07T11:19:33;25.65;;;17.67;;
84982;SDS011;75295;45.426;9.696;2024-01-07T11:24:50;23.55;;;16.50;;
84982;SDS011;75295;45.426;9.696;2024-01-07T11:27:17;25.10;;;18.00;;
84982;SDS011;75295;45.426;9.696;2024-01-07T11:29:51;23.42;;;17.98;;
84982;SDS011;75295;45.426;9.696;2024-01-07T11:32:30;23.75;;;16.88;;
84982;SDS011;75295;45.426;9.696;2024-01-07T11:35:01;22.47;;;17.37;;
84982;SDS011;75295;45.426;9.696;2024-01-07T11:37:29;22.65;;;17.35;;
84982;SDS011;75295;45.426;9.696;2024-01-07T11:39:56;25.02;;;17.63;;
84982;SDS011;75295;45.426;9.696;2024-01-07T11:42:23;22.17;;;16.85;;
84982;SDS011;75295;45.426;9.696;2024-01-07T11:44:54;24.13;;;17.20;;
84982;SDS011;75295;45.426;9.696;2024-01-07T11:47:22;23.90;;;18.52;;
84982;SDS011;75295;45.426;9.696;2024-01-07T11:49:50;22.67;;;16.92;;
84982;SDS011;75295;45.426;9.696;2024-01-07T11:52:16;24.00;;;17.77;;
84982;SDS011;75295;45.426;9.696;2024-01-07T11:54:44;25.73;;;19.33;;
84982;SDS011;75295;45.426;9.696;2024-01-07T11:57:12;24.10;;;17.48;;
84982;SDS011;75295;45.426;9.696;2024-01-07T11:59:44;25.58;;;18.20;;
84982;SDS011;75295;45.426;9.696;2024-01-07T12:02:12;22.75;;;16.52;;
84982;SDS011;75295;45.426;9.696;2024-01-07T12:04:41;21.33;;;16.30;;
84982;SDS011;75295;45.426;9.696;2024-01-07T12:07:12;27.55;;;19.80;;
84982;SDS011;75295;45.426;9.696;2024-01-07T12:09:40;24.75;;;18.85;;
84982;SDS011;75295;45.426;9.696;2024-01-07T12:12:10;26.92;;;19.90;;
84982;SDS011;75295;45.426;9.696;2024-01-07T12:14:40;25.80;;;19.77;;
84982;SDS011;75295;45.426;9.696;2024-01-07T12:17:09;28.65;;;21.45;;
84982;SDS011;75295;45.426;9.696;2024-01-07T12:19:36;27.33;;;19.80;;
84982;SDS011;75295;45.426;9.696;2024-01-07T12:22:09;25.42;;;19.83;;
84982;SDS011;75295;45.426;9.696;2024-01-07T12:24:38;24.23;;;18.58;;
84982;SDS011;75295;45.426;9.696;2024-01-07T12:27:09;24.02;;;18.60;;
84982;SDS011;75295;45.426;9.696;2024-01-07T12:29:38;27.25;;;18.48;;
84982;SDS011;75295;45.426;9.696;2024-01-07T12:32:08;21.77;;;16.73;;
84982;SDS011;75295;45.426;9.696;2024-01-07T12:34:38;26.20;;;19.20;;
84982;SDS011;75295;45.426;9.696;2024-01-07T12:37:06;21.52;;;17.08;;
84982;SDS011;75295;45.426;9.696;2024-01-07T12:39:40;23.05;;;17.48;;
84982;SDS011;75295;45.426;9.696;2024-01-07T12:42:07;22.48;;;17.70;;
84982;SDS011;75295;45.426;9.696;2024-01-07T12:44:38;24.73;;;17.67;;
84982;SDS011;75295;45.426;9.696;2024-01-07T12:47:06;23.73;;;18.73;;
84982;SDS011;75295;45.426;9.696;2024-01-07T12:49:33;23.98;;;17.42;;
84982;SDS011;75295;45.426;9.696;2024-01-07T12:52:05;22.42;;;16.27;;
84982;SDS011;75295;45.426;9.696;2024-01-07T12:54:36;21.13;;;16.08;;
84982;SDS011;75295;45.426;9.696;2024-01-07T12:57:04;19.92;;;15.73;;
84982;SDS011;75295;45.426;9.696;2024-01-07T12:59:31;23.27;;;16.10;;
84982;SDS011;75295;45.426;9.696;2024-01-07T13:01:59;20.73;;;16.50;;
84982;SDS011;75295;45.426;9.696;2024-01-07T13:04:27;20.60;;;15.00;;
84982;SDS011;75295;45.426;9.696;2024-01-07T13:06:57;19.58;;;15.70;;
84982;SDS011;75295;45.426;9.696;2024-01-07T13:09:24;22.95;;;16.55;;
84982;SDS011;75295;45.426;9.696;2024-01-07T13:11:51;22.95;;;16.13;;
84982;SDS011;75295;45.426;9.696;2024-01-07T13:14:20;19.88;;;15.13;;
84982;SDS011;75295;45.426;9.696;2024-01-07T13:16:52;18.75;;;14.95;;
84982;SDS011;75295;45.426;9.696;2024-01-07T13:19:19;21.48;;;16.95;;
84982;SDS011;75295;45.426;9.696;2024-01-07T13:21:46;21.30;;;15.73;;
84982;SDS011;75295;45.426;9.696;2024-01-07T13:24:18;21.23;;;15.63;;
84982;SDS011;75295;45.426;9.696;2024-01-07T13:26:46;21.42;;;15.43;;
84982;SDS011;75295;45.426;9.696;2024-01-07T13:29:13;23.95;;;16.88;;
84982;SDS011;75295;45.426;9.696;2024-01-07T13:31:39;22.08;;;15.70;;
84982;SDS011;75295;45.426;9.696;2024-01-07T13:34:06;21.60;;;16.50;;
84982;SDS011;75295;45.426;9.696;2024-01-07T13:36:35;20.48;;;14.88;;
84982;SDS011;75295;45.426;9.696;2024-01-07T13:39:05;19.10;;;14.95;;
84982;SDS011;75295;45.426;9.696;2024-01-07T13:41:35;19.85;;;14.93;;
84982;SDS011;75295;45.426;9.696;2024-01-07T13:44:02;17.63;;;13.85;;
84982;SDS011;75295;45.426;9.696;2024-01-07T13:46:29;18.13;;;13.77;;
84982;SDS011;75295;45.426;9.696;2024-01-07T13:48:56;19.17;;;13.27;;
84982;SDS011;75295;45.426;9.696;2024-01-07T13:51:23;18.90;;;15.30;;
84982;SDS011;75295;45.426;9.696;2024-01-07T13:53:51;18.08;;;14.15;;
84982;SDS011;75295;45.426;9.696;2024-01-07T13:56:19;19.67;;;15.43;;
84982;SDS011;75295;45.426;9.696;2024-01-07T13:58:48;20.02;;;14.68;;
84982;SDS011;75295;45.426;9.696;2024-01-07T14:01:18;18.40;;;13.73;;
84982;SDS011;75295;45.426;9.696;2024-01-07T14:03:49;17.02;;;13.80;;
84982;SDS011;75295;45.426;9.696;2024-01-07T14:06:17;15.90;;;12.45;;
84982;SDS011;75295;45.426;9.696;2024-01-07T14:08:44;19.33;;;14.15;;
84982;SDS011;75295;45.426;9.696;2024-01-07T14:11:11;17.05;;;12.02;;
84982;SDS011;75295;45.426;9.696;2024-01-07T14:13:39;15.57;;;12.00;;
84982;SDS011;75295;45.426;9.696;2024-01-07T14:16:06;16.40;;;12.05;;
84982;SDS011;75295;45.426;9.696;2024-01-07T14:18:33;16.25;;;12.18;;
84982;SDS011;75295;45.426;9.696;2024-01-07T14:20:59;15.27;;;11.85;;
84982;SDS011;75295;45.426;9.696;2024-01-07T14:23:26;16.38;;;11.77;;
84982;SDS011;75295;45.426;9.696;2024-01-07T14:25:55;15.98;;;12.20;;
84982;SDS011;75295;45.426;9.696;2024-01-07T14:28:22;14.38;;;10.68;;
84982;SDS011;75295;45.426;9.696;2024-01-07T14:30:50;14.63;;;11.38;;
84982;SDS011;75295;45.426;9.696;2024-01-07T14:33:17;16.00;;;12.02;;
84982;SDS011;75295;45.426;9.696;2024-01-07T14:35:44;16.58;;;11.93;;